Time;durP1;ratioP1;P1;durP2;ratioP2;P2;SDS_P1;SDS_P2;PMS_P1;PMS_P2;Temp;Humidity;BMP_temperature;BMP_pressure;BME280_temperature;BME280_humidity;BME280_pressure;Samples;Min_cycle;Max_cycle;Signal;HPM_P1;HPM_P2
2022/06/21 00:00:27;;;;;;;9.25;5.72;;;8.60;99.90;;;;;;4681038;30;20045;-85
2022/06/21 00:02:59;;;;;;;11.23;5.55;;;8.60;99.90;;;;;;4682551;30;20038;-85
2022/06/21 00:05:35;;;;;;;8.15;5.72;;;8.60;99.90;;;;;;4668507;30;20498;-86
2022/06/21 00:08:06;;;;;;;7.18;5.65;;;8.60;99.90;;;;;;4682144;30;20516;-84
2022/06/21 00:10:34;;;;;;;8.48;5.22;;;8.50;99.90;;;;;;4678288;30;20049;-85
2022/06/21 00:13:07;;;;;;;7.75;4.53;;;8.50;99.90;;;;;;4671856;30;20050;-85
2022/06/21 00:15:33;;;;;;;10.80;5.30;;;8.50;99.90;;;;;;4682129;30;20050;-84
2022/06/21 00:17:58;;;;;;;10.07;6.18;;;8.50;99.90;;;;;;4668043;30;20053;-84
2022/06/21 00:20:26;;;;;;;6.93;5.35;;;8.40;99.90;;;;;;4666564;30;20042;-84
2022/06/21 00:22:52;;;;;;;11.10;6.03;;;8.40;99.90;;;;;;4691613;30;20480;-85
2022/06/21 00:25:24;;;;;;;8.95;6.50;;;8.40;99.90;;;;;;4682270;30;20049;-85
2022/06/21 00:27:50;;;;;;;7.33;6.47;;;8.30;99.90;;;;;;4696600;30;20529;-85
2022/06/21 00:30:17;;;;;;;9.60;7.85;;;8.30;99.90;;;;;;4674328;30;20502;-85
2022/06/21 00:33:00;;;;;;;12.63;8.15;;;8.30;99.90;;;;;;4679633;30;20073;-85
2022/06/21 00:35:26;;;;;;;9.88;8.55;;;8.30;99.90;;;;;;4667262;30;20049;-84
2022/06/21 00:37:53;;;;;;;18.90;10.25;;;8.30;99.90;;;;;;4681238;30;20041;-85
2022/06/21 00:40:27;;;;;;;12.00;9.93;;;8.30;99.90;;;;;;4681014;30;20050;-85
2022/06/21 00:43:06;;;;;;;13.13;10.40;;;8.30;99.90;;;;;;4682323;30;20124;-84
2022/06/21 00:45:44;;;;;;;13.80;11.15;;;8.20;99.90;;;;;;4682383;30;20050;-85
2022/06/21 00:48:15;;;;;;;11.85;9.35;;;8.30;99.90;;;;;;4681800;30;20067;-86
2022/06/21 00:50:45;;;;;;;13.63;9.48;;;8.20;99.90;;;;;;4665025;30;20069;-83
2022/06/21 00:53:28;;;;;;;12.68;10.52;;;8.20;99.90;;;;;;4680970;30;20050;-84
2022/06/21 00:55:59;;;;;;;15.23;10.30;;;8.20;99.90;;;;;;4667852;30;20509;-86
2022/06/21 00:58:26;;;;;;;11.20;9.48;;;8.20;99.90;;;;;;4681684;30;20056;-85
2022/06/21 01:01:13;;;;;;;10.68;9.55;;;8.20;99.90;;;;;;4679404;30;20584;-85
2022/06/21 01:04:04;;;;;;;12.07;9.77;;;8.20;99.90;;;;;;4668265;30;20077;-84
2022/06/21 01:06:40;;;;;;;9.40;8.27;;;8.10;99.90;;;;;;4667475;30;20074;-85
2022/06/21 01:09:33;;;;;;;12.63;10.85;;;8.10;99.90;;;;;;4666867;30;20498;-86
2022/06/21 01:12:44;;;;;;;13.82;10.98;;;8.10;99.90;;;;;;4654336;30;20136;-86
2022/06/21 01:15:16;;;;;;;11.00;9.90;;;8.10;99.90;;;;;;4659104;30;20097;-85
2022/06/21 01:17:41;;;;;;;9.85;8.77;;;8.10;99.90;;;;;;4681023;30;20060;-85
2022/06/21 01:20:11;;;;;;;8.93;8.13;;;8.00;99.90;;;;;;4665635;30;20502;-84
2022/06/21 01:23:18;;;;;;;9.27;7.45;;;8.00;99.90;;;;;;4681321;30;20129;-85
2022/06/21 01:25:53;;;;;;;8.50;7.10;;;8.00;99.90;;;;;;4650018;30;20594;-84
2022/06/21 01:28:19;;;;;;;8.82;8.02;;;8.00;99.90;;;;;;4671115;30;20092;-84
2022/06/21 01:30:58;;;;;;;10.35;9.35;;;7.90;99.90;;;;;;4676815;30;20080;-85
2022/06/21 01:33:39;;;;;;;9.48;8.63;;;7.90;99.90;;;;;;4666951;30;20196;-84
2022/06/21 01:36:20;;;;;;;11.18;9.75;;;7.80;99.90;;;;;;4667275;30;20046;-84
2022/06/21 01:39:00;;;;;;;9.93;9.00;;;7.80;99.90;;;;;;4658002;30;20042;-84
2022/06/21 01:41:41;;;;;;;10.02;8.60;;;7.80;99.90;;;;;;4680414;30;20053;-84
2022/06/21 01:44:12;;;;;;;10.45;9.55;;;7.80;99.90;;;;;;4667206;30;20045;-85
2022/06/21 01:46:38;;;;;;;9.27;8.45;;;7.70;99.90;;;;;;4681487;30;20402;-84
2022/06/21 01:49:11;;;;;;;11.93;10.73;;;7.70;99.90;;;;;;4680621;30;20049;-83
2022/06/21 01:51:40;;;;;;;;;;;7.70;99.90;;;;;;4678347;30;20041;-84
2022/06/21 01:54:09;;;;;;;11.65;9.45;;;7.70;99.90;;;;;;4665736;30;20319;-84
2022/06/21 01:56:39;;;;;;;9.93;8.98;;;7.60;99.90;;;;;;4680007;30;20046;-86
2022/06/21 01:59:11;;;;;;;10.75;9.68;;;7.60;99.90;;;;;;4680614;30;20038;-85
2022/06/21 02:01:42;;;;;;;14.80;11.70;;;7.60;99.90;;;;;;4673665;30;20479;-85
2022/06/21 02:04:10;;;;;;;14.85;12.98;;;7.60;99.90;;;;;;4666089;30;20088;-85
2022/06/21 02:06:41;;;;;;;14.20;12.18;;;7.60;99.90;;;;;;4680833;30;20065;-85
2022/06/21 02:09:14;;;;;;;10.85;9.85;;;7.60;99.90;;;;;;4680135;30;20089;-85
2022/06/21 02:11:48;;;;;;;8.68;7.85;;;7.60;99.90;;;;;;4680587;30;20521;-85
2022/06/21 02:14:28;;;;;;;7.50;6.80;;;7.60;99.90;;;;;;4680236;30;20507;-86
2022/06/21 02:16:56;;;;;;;9.98;8.15;;;7.60;99.90;;;;;;4665685;30;20052;-85
2022/06/21 02:19:40;;;;;;;8.90;8.20;;;7.50;99.90;;;;;;4666045;30;20060;-85
2022/06/21 02:22:11;;;;;;;8.63;7.88;;;7.50;99.90;;;;;;4670236;30;20045;-85
2022/06/21 02:24:37;;;;;;;8.18;7.47;;;7.40;99.90;;;;;;4680718;30;20499;-86
2022/06/21 02:27:04;;;;;;;8.32;7.53;;;7.40;99.90;;;;;;4680568;30;20055;-85
2022/06/21 02:29:31;;;;;;;9.25;8.35;;;7.30;99.90;;;;;;4672220;30;20051;-84
2022/06/21 02:31:59;;;;;;;11.05;10.05;;;7.30;99.90;;;;;;4663745;30;20050;-85
2022/06/21 02:34:31;;;;;;;10.95;9.98;;;7.20;99.90;;;;;;4680732;30;20097;-85
2022/06/21 02:36:59;;;;;;;11.07;10.07;;;7.20;99.90;;;;;;4680514;30;20140;-85
2022/06/21 02:39:28;;;;;;;9.70;8.90;;;7.20;99.90;;;;;;4679660;30;20082;-85
2022/06/21 02:42:12;;;;;;;10.23;9.30;;;7.10;99.90;;;;;;4665629;30;20448;-84
2022/06/21 02:44:44;;;;;;;11.60;10.40;;;7.10;99.90;;;;;;4680825;30;20410;-85
2022/06/21 02:47:17;;;;;;;11.75;10.80;;;7.10;99.90;;;;;;4680185;30;20563;-85
2022/06/21 02:49:46;;;;;;;;;;;7.00;99.90;;;;;;4673001;30;20056;-85
2022/06/21 02:52:40;;;;;;;10.90;10.00;;;7.00;99.90;;;;;;4682228;30;19928;-85
2022/06/21 02:55:20;;;;;;;10.40;9.50;;;7.00;99.90;;;;;;4682053;30;20062;-84
2022/06/21 02:58:07;;;;;;;12.25;11.20;;;6.90;99.90;;;;;;4676058;30;20077;-84
2022/06/21 03:00:33;;;;;;;11.40;10.48;;;6.90;99.90;;;;;;4678767;30;20068;-85
2022/06/21 03:03:05;;;;;;;11.23;10.32;;;6.90;99.90;;;;;;4683474;30;20042;-85
2022/06/21 03:05:34;;;;;;;10.63;9.82;;;6.90;99.90;;;;;;4683363;30;20116;-85
2022/06/21 03:08:04;;;;;;;10.73;9.93;;;6.90;99.90;;;;;;4684130;30;20177;-85
2022/06/21 03:10:38;;;;;;;10.63;9.80;;;6.90;99.90;;;;;;4668676;30;20133;-86
2022/06/21 03:13:19;;;;;;;11.32;10.43;;;6.80;99.90;;;;;;4668936;30;20525;-85
2022/06/21 03:15:49;;;;;;;11.65;10.68;;;6.80;99.90;;;;;;4683362;30;20084;-85
2022/06/21 03:18:23;;;;;;;12.95;11.85;;;6.80;99.90;;;;;;4669158;30;20192;-84
2022/06/21 03:20:51;;;;;;;12.05;11.07;;;6.80;99.90;;;;;;4683753;30;20045;-84
2022/06/21 03:23:19;;;;;;;11.85;10.80;;;6.80;99.90;;;;;;4683012;30;20086;-84
2022/06/21 03:25:51;;;;;;;11.68;10.68;;;6.80;99.90;;;;;;4682934;30;20151;-85
2022/06/21 03:28:27;;;;;;;11.85;10.95;;;6.80;99.90;;;;;;4683307;30;20050;-85
2022/06/21 03:31:12;;;;;;;11.05;10.25;;;6.80;99.90;;;;;;4683004;30;20053;-85
2022/06/21 03:33:42;;;;;;;13.38;12.38;;;6.80;99.90;;;;;;4682639;30;20450;-84
2022/06/21 03:36:11;;;;;;;12.25;11.35;;;6.70;99.90;;;;;;4683554;30;20050;-85
2022/06/21 03:38:40;;;;;;;13.02;11.82;;;6.70;99.90;;;;;;4683467;30;20132;-85
2022/06/21 03:44:01;;;;;;;13.43;12.25;;;6.80;99.90;;;;;;4682340;30;20053;-84
2022/06/21 03:46:37;;;;;;;13.57;12.38;;;6.80;99.90;;;;;;4683072;30;20136;-84
2022/06/21 03:49:10;;;;;;;12.82;11.73;;;6.80;99.90;;;;;;4682182;30;20042;-84
2022/06/21 03:51:39;;;;;;;12.63;11.38;;;6.80;99.90;;;;;;4683170;30;20581;-84
2022/06/21 03:54:25;;;;;;;12.82;11.82;;;6.80;99.90;;;;;;4682527;30;20124;-84
2022/06/21 03:57:00;;;;;;;12.50;11.50;;;6.80;99.90;;;;;;4683084;30;20458;-85
2022/06/21 03:59:43;;;;;;;12.00;11.02;;;6.80;99.90;;;;;;4682928;30;20497;-84
2022/06/21 04:02:20;;;;;;;11.85;10.95;;;6.90;99.90;;;;;;4683027;30;20570;-85
2022/06/21 04:05:05;;;;;;;13.00;11.90;;;6.90;99.90;;;;;;4669046;30;20398;-85
2022/06/21 04:07:42;;;;;;;12.27;11.10;;;6.90;99.90;;;;;;4682871;30;20502;-85
2022/06/21 04:10:27;;;;;;;13.00;11.88;;;7.00;99.90;;;;;;4682533;30;20505;-85
2022/06/21 04:12:58;;;;;;;13.10;11.90;;;7.00;99.90;;;;;;4668317;30;20045;-84
2022/06/21 04:15:34;;;;;;;12.88;11.90;;;7.00;99.90;;;;;;4682657;30;20133;-84
2022/06/21 04:18:11;;;;;;;14.52;13.05;;;7.10;99.90;;;;;;4668043;30;20042;-85
2022/06/21 04:20:49;;;;;;;16.30;14.80;;;7.10;99.90;;;;;;4668489;30;20423;-86
2022/06/21 04:23:27;;;;;;;16.70;15.32;;;7.20;99.90;;;;;;4676054;30;20506;-84
2022/06/21 04:26:17;;;;;;;16.08;14.88;;;7.30;99.90;;;;;;4685376;30;20153;-85
2022/06/21 04:28:52;;;;;;;16.90;15.68;;;7.50;99.90;;;;;;4682621;30;20099;-85
2022/06/21 04:31:27;;;;;;;15.65;14.25;;;7.70;99.90;;;;;;4682901;30;20392;-85
2022/06/21 04:34:08;;;;;;;15.80;14.50;;;8.10;99.90;;;;;;4683141;30;20057;-85
2022/06/21 04:36:42;;;;;;;17.75;16.52;;;8.50;99.90;;;;;;4674952;30;20182;-85
2022/06/21 04:39:20;;;;;;;17.77;16.48;;;8.90;99.90;;;;;;4681795;30;20050;-85
2022/06/21 04:41:53;;;;;;;17.55;16.08;;;9.40;99.90;;;;;;4682485;30;20042;-85
2022/06/21 04:44:22;;;;;;;20.90;19.50;;;9.70;99.90;;;;;;4682149;30;20037;-85
2022/06/21 04:47:00;;;;;;;25.13;23.20;;;10.10;99.90;;;;;;4682259;30;20050;-87
2022/06/21 04:49:37;;;;;;;24.65;23.25;;;10.50;99.90;;;;;;4681977;30;20096;-85
2022/06/21 04:52:12;;;;;;;20.77;19.17;;;10.90;99.90;;;;;;4695895;30;20142;-85
2022/06/21 04:54:39;;;;;;;20.63;19.42;;;11.30;99.90;;;;;;4681345;30;20115;-85
2022/06/21 04:57:13;;;;;;;18.50;17.10;;;11.60;99.90;;;;;;4682743;30;20050;-86
2022/06/21 05:00:03;;;;;;;18.40;17.23;;;11.80;99.90;;;;;;4681121;30;20112;-85
2022/06/21 05:02:38;;;;;;;18.88;17.38;;;11.90;99.90;;;;;;4678932;30;20046;-85
2022/06/21 05:05:12;;;;;;;18.85;17.50;;;11.90;99.90;;;;;;4675045;30;20062;-85
2022/06/21 05:07:53;;;;;;;18.17;16.88;;;11.90;99.90;;;;;;4675192;30;20495;-85
2022/06/21 05:10:30;;;;;;;17.92;16.58;;;12.30;99.90;;;;;;4681245;30;20049;-86
2022/06/21 05:12:58;;;;;;;17.92;16.52;;;12.50;99.90;;;;;;4679985;30;20045;-85
2022/06/21 05:15:43;;;;;;;18.08;16.63;;;12.70;99.90;;;;;;4681501;30;20072;-85
2022/06/21 05:18:17;;;;;;;19.27;18.08;;;12.80;99.90;;;;;;4681174;30;20065;-85
2022/06/21 05:20:53;;;;;;;19.35;17.98;;;12.60;99.90;;;;;;4674142;30;20660;-85
2022/06/21 05:23:22;;;;;;;19.08;17.63;;;12.40;99.90;;;;;;4680913;30;20053;-85
2022/06/21 05:25:50;;;;;;;19.17;17.58;;;12.40;99.90;;;;;;4681109;30;20085;-85
2022/06/21 05:28:35;;;;;;;16.67;15.45;;;12.60;99.90;;;;;;4680210;30;20057;-85
2022/06/21 05:41:38;;;;;;;17.17;15.68;;;13.80;99.90;;;;;;5276933;24;20058;-86
2022/06/21 05:44:13;;;;;;;15.43;14.40;;;14.00;99.90;;;;;;4676358;30;20437;-86
2022/06/21 05:46:47;;;;;;;15.40;14.20;;;14.20;99.90;;;;;;4674938;30;20054;-86
2022/06/21 05:49:26;;;;;;;14.88;13.63;;;14.40;99.90;;;;;;4680675;30;20053;-86
2022/06/21 05:51:54;;;;;;;15.68;14.23;;;14.90;99.90;;;;;;4679141;30;20060;-85
2022/06/21 05:54:28;;;;;;;15.90;14.63;;;15.10;99.90;;;;;;4675853;30;20132;-85
2022/06/21 05:56:54;;;;;;;15.63;14.40;;;15.40;99.90;;;;;;4666542;30;20050;-85
2022/06/21 05:59:23;;;;;;;15.15;13.88;;;15.60;99.90;;;;;;4680723;30;20057;-85
2022/06/21 06:02:01;;;;;;;16.35;15.15;;;15.50;99.90;;;;;;4706638;30;20520;-85
2022/06/21 06:04:38;;;;;;;17.35;15.85;;;15.60;99.90;;;;;;4680529;30;20073;-85
2022/06/21 06:07:05;;;;;;;17.52;16.15;;;15.40;99.90;;;;;;4681108;30;20057;-85
2022/06/21 06:09:39;;;;;;;16.63;15.20;;;15.40;99.90;;;;;;4679849;30;20054;-85
2022/06/21 06:12:22;;;;;;;17.02;15.82;;;15.20;99.90;;;;;;4694471;30;20042;-85
2022/06/21 06:15:03;;;;;;;16.65;15.65;;;15.10;99.90;;;;;;4681423;30;20502;-86
2022/06/21 06:17:48;;;;;;;17.67;16.35;;;15.00;99.90;;;;;;4680433;30;20104;-83
2022/06/21 06:20:59;;;;;;;15.98;14.77;;;14.90;99.90;;;;;;4677701;30;20525;-84
2022/06/21 06:23:33;;;;;;;16.80;15.57;;;14.80;99.90;;;;;;4637987;30;20064;-83
2022/06/21 06:26:01;;;;;;;17.38;15.90;;;14.70;99.90;;;;;;4689630;30;20046;-84
2022/06/21 06:28:39;;;;;;;16.77;15.32;;;14.60;99.90;;;;;;4691666;30;20046;-83
2022/06/21 06:31:13;;;;;;;17.30;15.80;;;14.60;99.90;;;;;;4687880;30;20349;-83
2022/06/21 06:33:49;;;;;;;16.38;15.10;;;14.60;99.90;;;;;;4664949;30;20490;-84
2022/06/21 06:36:18;;;;;;;16.45;15.30;;;14.50;99.90;;;;;;4694511;30;20089;-85
2022/06/21 06:38:44;;;;;;;16.77;15.20;;;14.50;99.90;;;;;;4665502;30;20154;-84
2022/06/21 06:41:26;;;;;;;15.93;14.73;;;14.60;99.90;;;;;;4672473;30;20455;-84
2022/06/21 06:44:00;;;;;;;15.75;14.65;;;14.60;99.90;;;;;;4709364;30;20050;-84
2022/06/21 06:46:30;;;;;;;17.15;15.57;;;14.70;99.90;;;;;;4677155;30;20585;-83
2022/06/21 06:49:21;;;;;;;15.93;14.70;;;14.80;99.90;;;;;;4693768;30;20514;-86
2022/06/21 06:51:51;;;;;;;22.17;14.52;;;15.10;99.90;;;;;;4662588;30;20057;-86
2022/06/21 06:55:02;;;;;;;13.73;12.82;;;15.30;99.90;;;;;;4678434;30;20062;-86
2022/06/21 06:57:35;;;;;;;14.00;12.93;;;15.70;99.90;;;;;;4646677;30;20149;-86
2022/06/21 07:00:10;;;;;;;14.80;13.70;;;16.00;99.90;;;;;;4694275;30;20069;-86
2022/06/21 07:02:41;;;;;;;14.77;13.57;;;16.10;99.90;;;;;;4676182;30;20045;-86
2022/06/21 07:05:21;;;;;;;15.07;13.85;;;16.20;99.90;;;;;;4680120;30;20053;-86
2022/06/21 07:07:53;;;;;;;16.33;15.10;;;16.30;99.90;;;;;;4673371;30;20402;-87
2022/06/21 07:10:22;;;;;;;15.50;14.23;;;16.20;99.90;;;;;;4694560;30;20053;-86
2022/06/21 07:12:50;;;;;;;15.70;14.38;;;16.20;99.90;;;;;;4666034;30;20119;-86
2022/06/21 07:15:17;;;;;;;14.38;13.20;;;16.30;99.90;;;;;;4665886;30;20042;-86
2022/06/21 07:17:54;;;;;;;15.13;14.00;;;16.30;99.90;;;;;;4679874;30;20514;-86
2022/06/21 07:20:39;;;;;;;15.25;14.32;;;16.30;99.90;;;;;;4680229;30;20077;-87
2022/06/21 07:23:16;;;;;;;14.65;13.45;;;16.50;99.90;;;;;;4680254;30;20093;-86
2022/06/21 07:26:31;;;;;;;14.50;13.30;;;16.60;99.90;;;;;;4679458;30;20057;-86
2022/06/21 07:29:09;;;;;;;13.98;12.88;;;16.50;99.90;;;;;;4647444;30;20147;-86
2022/06/21 07:31:43;;;;;;;14.90;13.70;;;16.50;99.90;;;;;;4647754;30;20053;-86
2022/06/21 07:34:14;;;;;;;14.88;13.85;;;16.60;99.90;;;;;;4664896;30;20128;-86
2022/06/21 07:36:44;;;;;;;13.77;12.77;;;16.60;99.90;;;;;;4661232;30;20046;-86
2022/06/21 07:39:30;;;;;;;13.13;12.30;;;16.60;99.90;;;;;;4681203;30;20053;-86
2022/06/21 07:42:20;;;;;;;11.15;10.30;;;17.00;99.90;;;;;;4678325;30;20056;-86
2022/06/21 07:45:12;;;;;;;8.32;7.72;;;17.50;99.90;;;;;;4669835;30;20050;-86
2022/06/21 07:47:55;;;;;;;8.93;8.15;;;18.30;99.90;;;;;;4681317;30;20061;-86
2022/06/21 07:50:31;;;;;;;9.80;8.98;;;19.20;99.90;;;;;;4696027;30;21265;-86
2022/06/21 07:53:19;;;;;;;9.57;8.73;;;19.90;99.90;;;;;;4677829;30;20521;-87
2022/06/21 07:56:39;;;;;;;10.15;9.25;;;20.70;99.90;;;;;;4686615;30;20135;-87
2022/06/21 07:59:35;;;;;;;15.45;14.25;;;21.50;99.90;;;;;;4706636;30;20054;-87
2022/06/21 08:06:41;;;;;;;14.98;14.00;;;22.80;99.90;;;;;;4694767;30;20081;-87
2022/06/21 08:08:18;;;;;;;16.50;15.57;;;23.30;99.60;;;;;;4679483;30;20070;-87
2022/06/21 08:10:55;;;;;;;17.50;16.50;;;23.70;97.60;;;;;;4681591;30;20046;-87
2022/06/21 08:13:21;;;;;;;17.10;16.10;;;24.00;95.60;;;;;;4667736;30;20057;-87
2022/06/21 08:15:58;;;;;;;15.80;15.00;;;24.20;93.40;;;;;;4680576;30;20116;-87
2022/06/21 08:18:30;;;;;;;16.42;15.40;;;24.50;92.40;;;;;;4696657;30;20049;-88
2022/06/21 08:21:07;;;;;;;16.60;15.55;;;24.90;91.90;;;;;;4696697;30;20046;-87
2022/06/21 08:23:40;;;;;;;15.25;14.40;;;25.20;88.40;;;;;;4696764;30;20046;-87
2022/06/21 08:26:30;;;;;;;15.93;14.85;;;25.50;87.10;;;;;;4697034;30;20403;-87
2022/06/21 08:29:00;;;;;;;14.77;14.07;;;25.70;78.20;;;;;;4710293;30;20457;-87
2022/06/21 08:31:33;;;;;;;15.68;14.60;;;25.90;85.40;;;;;;4666862;30;20525;-84
2022/06/21 08:34:34;;;;;;;20.05;18.45;;;26.10;75.50;;;;;;4667698;30;20081;-84
2022/06/21 08:37:05;;;;;;;14.07;13.27;;;26.30;78.00;;;;;;4663974;30;20503;-84
2022/06/21 08:39:47;;;;;;;13.88;13.10;;;26.60;79.40;;;;;;4710050;30;20572;-84
2022/06/21 08:43:04;;;;;;;12.45;11.50;;;26.80;78.50;;;;;;4695827;30;20498;-84
2022/06/21 08:45:41;;;;;;;15.05;14.05;;;27.10;60.70;;;;;;4660218;30;20045;-84
2022/06/21 08:48:34;;;;;;;13.88;13.02;;;27.20;73.80;;;;;;4667409;30;20053;-85
2022/06/21 08:51:22;;;;;;;12.40;11.57;;;27.00;61.30;;;;;;4681477;30;20411;-85
2022/06/21 08:54:17;;;;;;;13.30;12.50;;;26.90;60.30;;;;;;4661828;30;20514;-84
2022/06/21 08:57:17;;;;;;;15.63;14.63;;;26.90;61.20;;;;;;4674565;30;20052;-84
2022/06/21 09:00:20;;;;;;;13.52;12.73;;;27.00;63.40;;;;;;4676470;30;20042;-85
2022/06/21 09:03:15;;;;;;;10.98;10.18;;;27.10;63.10;;;;;;4688141;30;20338;-84
2022/06/21 09:06:10;;;;;;;11.88;10.88;;;27.10;61.50;;;;;;4684839;30;20066;-85
2022/06/21 09:09:27;;;;;;;14.05;13.25;;;27.00;69.50;;;;;;4688761;30;20037;-85
2022/06/21 09:12:20;;;;;;;19.98;12.73;;;27.10;68.70;;;;;;4681388;30;20058;-84
2022/06/21 09:14:49;;;;;;;;;;;27.40;67.90;;;;;;4681749;30;20054;-84
2022/06/21 09:17:28;;;;;;;10.38;9.57;;;27.40;53.90;;;;;;4695785;30;19931;-85
2022/06/21 09:19:54;;;;;;;9.88;9.25;;;27.40;62.30;;;;;;4667206;30;20140;-84
2022/06/21 09:22:44;;;;;;;12.82;12.10;;;27.30;60.40;;;;;;4662504;30;20126;-85
2022/06/21 09:25:30;;;;;;;10.65;9.95;;;27.30;60.00;;;;;;4663280;30;20041;-84
2022/06/21 09:28:18;;;;;;;9.38;8.68;;;27.30;58.40;;;;;;4704677;30;20556;-85
2022/06/21 09:30:55;;;;;;;10.85;10.13;;;27.20;59.50;;;;;;4665253;30;20098;-85
2022/06/21 09:33:56;;;;;;;12.70;12.00;;;27.20;57.40;;;;;;4708102;30;20046;-84
2022/06/21 09:36:34;;;;;;;11.55;10.75;;;27.20;59.20;;;;;;4707922;30;20057;-84
2022/06/21 09:39:05;;;;;;;11.82;11.13;;;27.30;64.50;;;;;;4680779;30;20085;-84
2022/06/21 09:41:36;;;;;;;10.27;9.68;;;27.50;61.60;;;;;;4694920;30;20050;-84
2022/06/21 09:44:14;;;;;;;11.70;10.88;;;27.70;61.10;;;;;;4665163;30;20038;-84
2022/06/21 09:47:14;;;;;;;8.98;8.38;;;28.00;60.40;;;;;;4656985;30;20050;-85
2022/06/21 09:50:01;;;;;;;10.65;9.75;;;28.30;57.90;;;;;;4710545;30;20058;-84
2022/06/21 09:52:38;;;;;;;9.55;8.95;;;28.50;62.20;;;;;;4676182;30;20401;-84
2022/06/21 09:55:11;;;;;;;10.18;9.50;;;28.70;59.40;;;;;;4666419;30;20049;-84
2022/06/21 09:57:51;;;;;;;9.73;9.10;;;28.90;57.60;;;;;;4664999;30;20133;-83
2022/06/21 10:00:37;;;;;;;9.15;8.45;;;28.80;54.50;;;;;;4692134;30;20046;-85
2022/06/21 10:03:33;;;;;;;10.27;9.43;;;28.80;56.70;;;;;;4679866;30;20038;-84
2022/06/21 10:06:31;;;;;;;9.13;8.43;;;28.80;53.70;;;;;;4659174;30;20481;-84
2022/06/21 10:09:06;;;;;;;13.00;12.30;;;28.70;54.20;;;;;;4662279;30;20132;-85
2022/06/21 10:12:01;;;;;;;10.75;10.05;;;28.60;54.80;;;;;;4667063;30;20084;-84
2022/06/21 10:14:48;;;;;;;12.00;11.40;;;28.50;55.00;;;;;;4677367;30;20259;-85
2022/06/21 10:17:28;;;;;;;10.45;9.75;;;28.40;52.40;;;;;;4689846;30;20410;-84
2022/06/21 10:20:13;;;;;;;9.07;8.48;;;28.10;51.90;;;;;;4666507;30;20571;-84
2022/06/21 10:22:52;;;;;;;11.07;10.48;;;27.80;53.30;;;;;;4674807;30;20054;-83
2022/06/21 10:25:36;;;;;;;12.20;11.50;;;27.80;52.30;;;;;;4684619;30;20506;-84
2022/06/21 10:28:16;;;;;;;11.05;10.18;;;27.40;52.20;;;;;;4676295;30;20054;-84
2022/06/21 10:31:07;;;;;;;10.32;9.60;;;27.20;56.30;;;;;;4690666;30;20057;-84
2022/06/21 10:33:56;;;;;;;13.20;12.43;;;27.20;58.20;;;;;;4693984;30;20107;-86
2022/06/21 10:36:59;;;;;;;12.75;11.95;;;27.50;54.90;;;;;;4678189;30;20046;-86
2022/06/21 10:39:43;;;;;;;;;;;27.60;52.10;;;;;;4664578;30;20085;-87
2022/06/21 10:42:49;;;;;;;10.43;9.85;;;27.70;55.50;;;;;;4691529;30;19928;-86
2022/06/21 10:45:49;;;;;;;9.93;9.32;;;27.90;54.60;;;;;;4677501;30;20054;-87
2022/06/21 10:48:55;;;;;;;8.88;8.38;;;28.40;55.30;;;;;;4665137;30;20058;-85
2022/06/21 10:51:24;;;;;;;11.38;10.68;;;28.90;55.30;;;;;;4692081;30;20460;-84
2022/06/21 10:54:02;;;;;;;8.65;7.95;;;29.20;53.80;;;;;;4682656;30;20042;-87
2022/06/21 11:02:43;;;;;;;7.88;7.28;;;29.20;49.50;;;;;;4679932;30;20307;-87
2022/06/21 11:05:18;;;;;;;10.05;9.43;;;29.00;51.80;;;;;;4691532;30;20081;-87
2022/06/21 11:07:43;;;;;;;8.23;7.68;;;29.10;52.20;;;;;;4693945;30;20076;-86
2022/06/21 11:10:28;;;;;;;9.73;9.13;;;29.30;53.70;;;;;;4666250;30;20046;-85
2022/06/21 11:12:56;;;;;;;9.63;8.68;;;29.50;50.00;;;;;;4691253;30;20453;-86
2022/06/21 11:15:48;;;;;;;9.60;9.00;;;29.50;49.90;;;;;;4698583;30;20053;-85
2022/06/21 11:18:22;;;;;;;12.10;11.40;;;29.50;52.00;;;;;;4680634;30;20483;-86
2022/06/21 11:21:32;;;;;;;12.95;12.25;;;29.40;50.30;;;;;;4669011;30;20038;-86
2022/06/21 11:24:26;;;;;;;11.07;10.43;;;29.50;49.40;;;;;;4685557;30;20042;-86
2022/06/21 11:27:19;;;;;;;10.80;10.18;;;29.50;50.90;;;;;;4696696;30;20082;-86
2022/06/21 11:30:17;;;;;;;8.98;8.48;;;29.50;49.00;;;;;;4665976;30;20050;-85
2022/06/21 11:33:11;;;;;;;9.48;8.88;;;29.60;49.80;;;;;;4677817;30;20060;-84
2022/06/21 11:35:54;;;;;;;9.05;8.45;;;29.70;47.00;;;;;;4708998;30;20059;-86
2022/06/21 11:38:35;;;;;;;9.73;9.13;;;29.40;47.20;;;;;;4680691;30;20046;-85
2022/06/21 11:42:04;;;;;;;10.27;9.73;;;29.20;51.00;;;;;;4683652;30;20034;-85
2022/06/21 11:44:17;;;;;;;11.02;10.43;;;29.30;48.90;;;;;;4681150;30;20046;-86
2022/06/21 11:46:51;;;;;;;9.45;8.88;;;29.40;47.30;;;;;;4698903;30;20046;-86
2022/06/21 11:49:51;;;;;;;10.43;9.73;;;29.30;48.80;;;;;;4682679;30;20520;-86
2022/06/21 11:52:54;;;;;;;9.50;8.90;;;29.40;49.90;;;;;;4683119;30;20049;-87
2022/06/21 11:55:27;;;;;;;8.85;8.10;;;29.20;49.10;;;;;;4681303;30;20059;-86
2022/06/21 11:58:25;;;;;;;12.18;11.38;;;28.90;48.80;;;;;;4679935;30;20101;-87
2022/06/21 12:00:53;;;;;;;11.02;10.43;;;28.60;45.00;;;;;;4706202;30;20502;-87
2022/06/21 12:03:36;;;;;;;11.65;10.82;;;28.00;47.60;;;;;;4668098;30;20507;-86
2022/06/21 12:06:11;;;;;;;12.73;11.93;;;27.50;47.80;;;;;;4682868;30;20076;-86
2022/06/21 12:08:54;;;;;;;12.18;11.50;;;26.90;48.80;;;;;;4666886;30;20089;-87
2022/06/21 12:11:23;;;;;;;;;;;26.40;49.40;;;;;;4666456;30;20081;-87
2022/06/21 12:14:04;;;;;;;11.45;10.85;;;25.90;51.20;;;;;;4682270;30;19929;-86
2022/06/21 12:16:42;;;;;;;11.48;10.75;;;25.60;51.00;;;;;;4696399;30;20057;-86
2022/06/21 12:19:19;;;;;;;12.30;11.57;;;25.50;52.10;;;;;;4682421;30;20050;-87
2022/06/21 12:21:56;;;;;;;12.68;11.82;;;25.40;54.00;;;;;;4668060;30;20533;-87
2022/06/21 12:24:24;;;;;;;13.48;12.48;;;25.50;55.90;;;;;;4660256;30;20499;-86
2022/06/21 12:26:52;;;;;;;14.55;13.63;;;25.80;56.60;;;;;;4655268;30;20060;-86
2022/06/21 12:29:20;;;;;;;13.05;12.20;;;26.10;55.60;;;;;;4682653;30;20081;-87
2022/06/21 12:31:56;;;;;;;11.13;10.23;;;26.30;54.70;;;;;;4682426;30;20132;-87
2022/06/21 12:34:40;;;;;;;13.68;13.07;;;26.30;55.00;;;;;;4682343;30;20056;-87
2022/06/21 12:37:33;;;;;;;12.93;12.18;;;26.40;57.20;;;;;;4696520;30;20050;-87
2022/06/21 12:40:17;;;;;;;11.90;11.00;;;26.60;58.10;;;;;;4678315;30;20422;-87
2022/06/21 12:43:05;;;;;;;13.23;12.43;;;26.70;58.90;;;;;;4682010;30;20057;-86
2022/06/21 12:46:03;;;;;;;11.52;10.82;;;26.90;54.10;;;;;;4667643;30;20050;-87
2022/06/21 12:48:43;;;;;;;9.88;9.27;;;27.20;54.10;;;;;;4667228;30;20136;-87
2022/06/21 12:51:21;;;;;;;11.75;11.05;;;27.40;58.40;;;;;;4667701;30;20104;-87
2022/06/21 12:54:07;;;;;;;10.90;10.30;;;27.50;61.10;;;;;;4682337;30;20113;-87
2022/06/21 12:57:11;;;;;;;13.93;13.10;;;27.50;60.80;;;;;;4667268;30;20116;-87
2022/06/21 12:59:50;;;;;;;;;;;27.50;59.60;;;;;;4653857;30;20506;-86
2022/06/21 13:02:19;;;;;;;30.50;13.70;;;27.30;52.90;;;;;;4681807;30;19923;-87
2022/06/21 13:04:48;;;;;;;11.02;10.43;;;27.00;58.20;;;;;;4682042;30;20054;-86
2022/06/21 13:07:19;;;;;;;10.48;9.88;;;26.70;58.70;;;;;;4682062;30;20493;-85
2022/06/21 13:10:00;;;;;;;13.00;12.30;;;26.60;55.20;;;;;;4667277;30;20089;-86
2022/06/21 13:13:03;;;;;;;11.77;11.10;;;26.70;56.70;;;;;;4681593;30;20050;-86
2022/06/21 13:15:38;;;;;;;11.10;10.40;;;26.90;55.30;;;;;;4680852;30;20062;-85
2022/06/21 13:18:22;;;;;;;11.23;10.52;;;27.20;55.00;;;;;;4704916;30;20129;-86
2022/06/21 13:20:53;;;;;;;14.02;12.82;;;27.30;50.70;;;;;;4675476;30;20410;-87
2022/06/21 13:23:25;;;;;;;12.52;11.90;;;27.50;54.00;;;;;;4695004;30;20128;-86
2022/06/21 13:26:13;;;;;;;14.73;13.85;;;27.70;52.50;;;;;;4703922;30;20513;-87
2022/06/21 13:28:54;;;;;;;12.00;11.27;;;28.00;48.20;;;;;;4692092;30;20042;-87
2022/06/21 13:31:42;;;;;;;13.48;12.85;;;28.30;53.80;;;;;;4686736;30;20533;-87
2022/06/21 13:34:47;;;;;;;13.95;13.27;;;28.50;53.10;;;;;;4680566;30;20050;-87
2022/06/21 13:37:23;;;;;;;12.48;11.57;;;28.60;47.50;;;;;;4666995;30;20046;-86
2022/06/21 13:40:20;;;;;;;11.90;11.10;;;28.40;49.40;;;;;;4689250;30;20124;-87
2022/06/21 13:43:09;;;;;;;12.85;12.15;;;28.50;48.00;;;;;;4681176;30;20394;-88
2022/06/21 13:45:52;;;;;;;12.38;11.70;;;28.50;49.20;;;;;;4681357;30;20422;-87
2022/06/21 13:48:30;;;;;;;13.57;12.98;;;28.70;48.90;;;;;;4687179;30;20042;-86
2022/06/21 13:51:15;;;;;;;10.45;9.77;;;28.90;49.60;;;;;;4667115;30;20049;-86
2022/06/21 13:53:56;;;;;;;11.70;11.10;;;29.00;47.80;;;;;;4664003;30;20046;-86
2022/06/21 13:56:30;;;;;;;10.30;9.70;;;29.20;48.60;;;;;;4700477;30;20092;-86
2022/06/21 13:59:30;;;;;;;12.40;11.70;;;29.20;48.80;;;;;;4680976;30;20049;-87
2022/06/21 14:02:12;;;;;;;13.57;12.77;;;29.30;51.30;;;;;;4666912;30;20052;-86